createdAt,value
2023-05-08T00:00:24.478Z,5.61
2023-05-08T00:01:24.566Z,5.63
2023-05-08T00:02:24.699Z,5.64
2023-05-08T00:03:24.835Z,5.64
2023-05-08T00:04:24.844Z,5.63
2023-05-08T00:05:25.099Z,5.62
2023-05-08T00:06:25.016Z,5.60
2023-05-08T00:07:25.015Z,5.57
2023-05-08T00:08:25.123Z,5.54
2023-05-08T00:09:25.197Z,5.52
2023-05-08T00:10:25.264Z,5.51
2023-05-08T00:11:25.349Z,5.51
2023-05-08T00:12:25.464Z,5.52
2023-05-08T00:13:25.600Z,5.54
2023-05-08T00:14:25.635Z,5.54
2023-05-08T00:15:25.730Z,5.53
2023-05-08T00:16:25.908Z,5.52
2023-05-08T00:17:25.966Z,5.49
2023-05-08T00:18:26.017Z,5.47
2023-05-08T00:19:26.079Z,5.45
2023-05-08T00:20:26.134Z,5.45
2023-05-08T00:21:26.230Z,5.45
2023-05-08T00:22:26.306Z,5.47
2023-05-08T00:23:32.397Z,5.49
2023-05-08T00:24:26.469Z,5.49
2023-05-08T00:25:26.565Z,5.47
2023-05-08T00:26:26.651Z,5.46
2023-05-08T00:27:26.728Z,5.45
2023-05-08T00:28:26.847Z,5.43
2023-05-08T00:29:26.882Z,5.42
2023-05-08T00:30:26.971Z,5.42
2023-05-08T00:31:27.075Z,5.42
2023-05-08T00:32:27.309Z,5.42
2023-05-08T00:33:27.194Z,5.42
2023-05-08T00:34:27.273Z,5.42
2023-05-08T00:35:27.367Z,5.40
2023-05-08T00:36:27.448Z,5.39
2023-05-08T00:37:27.542Z,5.38
2023-05-08T00:38:27.655Z,5.38
2023-05-08T00:39:27.736Z,5.37
2023-05-08T00:40:27.804Z,5.37
2023-05-08T00:41:27.897Z,5.37
2023-05-08T00:42:27.981Z,5.37
2023-05-08T00:43:28.106Z,5.36
2023-05-08T00:44:28.151Z,5.35
2023-05-08T00:45:28.247Z,5.33
2023-05-08T00:46:28.364Z,5.30
2023-05-08T00:47:28.444Z,5.27
2023-05-08T00:48:28.512Z,5.24
2023-05-08T00:49:28.616Z,5.21
2023-05-08T00:50:28.722Z,5.20
2023-05-08T00:51:28.783Z,5.19
2023-05-08T00:52:28.860Z,5.18
2023-05-08T00:53:28.943Z,5.19
2023-05-08T00:54:35.420Z,5.18
2023-05-08T00:55:29.094Z,5.16
2023-05-08T00:56:29.181Z,5.12
2023-05-08T00:57:29.266Z,5.09
2023-05-08T00:58:29.351Z,5.06
2023-05-08T00:59:29.440Z,5.03
2023-05-08T01:00:29.571Z,5.01
2023-05-08T01:01:29.642Z,4.99
2023-05-08T01:02:29.750Z,5.00
2023-05-08T01:03:29.873Z,5.01
2023-05-08T01:04:29.834Z,5.02
2023-05-08T01:05:29.947Z,5.02
2023-05-08T01:06:30.012Z,5.00
2023-05-08T01:07:30.092Z,4.97
2023-05-08T01:08:30.179Z,4.95
2023-05-08T01:09:30.234Z,4.93
2023-05-08T01:10:30.309Z,4.90
2023-05-08T01:11:30.386Z,4.88
2023-05-08T01:12:30.497Z,4.86
2023-05-08T01:13:30.641Z,4.87
2023-05-08T01:14:30.634Z,4.88
2023-05-08T01:15:30.733Z,4.89
2023-05-08T01:16:30.866Z,4.90
2023-05-08T01:17:30.962Z,4.89
2023-05-08T01:18:30.918Z,4.87
2023-05-08T01:19:31.004Z,4.84
2023-05-08T01:20:31.108Z,4.81
2023-05-08T01:21:31.149Z,4.78
2023-05-08T01:22:31.227Z,4.74
2023-05-08T01:23:31.306Z,4.71
2023-05-08T01:24:31.387Z,4.68
2023-05-08T01:25:38.478Z,4.66
2023-05-08T01:26:31.568Z,4.67
2023-05-08T01:27:31.660Z,4.69
2023-05-08T01:28:31.753Z,4.69
2023-05-08T01:29:31.843Z,4.67
2023-05-08T01:30:31.952Z,4.66
2023-05-08T01:31:32.060Z,4.65
2023-05-08T01:32:32.127Z,4.63
2023-05-08T01:33:32.249Z,4.62
2023-05-08T01:34:32.270Z,4.63
2023-05-08T01:35:32.364Z,4.65
2023-05-08T01:36:32.424Z,4.66
2023-05-08T01:37:32.504Z,4.65
2023-05-08T01:38:32.590Z,4.63
2023-05-08T01:39:32.669Z,4.60
2023-05-08T01:40:32.821Z,4.58
2023-05-08T01:41:32.856Z,4.56
2023-05-08T01:42:32.926Z,4.53
2023-05-08T01:43:33.009Z,4.50
2023-05-08T01:44:33.100Z,4.49
2023-05-08T01:45:33.194Z,4.50
2023-05-08T01:46:33.314Z,4.52
2023-05-08T01:47:33.399Z,4.53
2023-05-08T01:48:33.442Z,4.52
2023-05-08T01:49:33.513Z,4.49
2023-05-08T01:50:33.603Z,4.46
2023-05-08T01:51:33.702Z,4.43
2023-05-08T01:52:33.757Z,4.40
2023-05-08T01:53:33.840Z,4.37
2023-05-08T01:54:33.922Z,4.36
2023-05-08T01:55:34.028Z,4.36
2023-05-08T01:56:40.498Z,4.37
2023-05-08T01:57:34.138Z,4.39
2023-05-08T01:58:34.282Z,4.39
2023-05-08T01:59:34.302Z,4.39
2023-05-08T02:00:34.414Z,4.39
2023-05-08T02:01:34.478Z,4.38
2023-05-08T02:02:34.654Z,4.37
2023-05-08T02:03:34.692Z,4.37
2023-05-08T02:04:34.715Z,4.35
2023-05-08T02:05:34.772Z,4.34
2023-05-08T02:06:34.864Z,4.35
2023-05-08T02:07:34.942Z,4.36
2023-05-08T02:08:35.005Z,4.38
2023-05-08T02:09:35.101Z,4.37
2023-05-08T02:10:35.180Z,4.33
2023-05-08T02:11:35.279Z,4.28
2023-05-08T02:12:35.454Z,4.23
2023-05-08T02:13:35.436Z,4.19
2023-05-08T02:14:35.527Z,4.17
2023-05-08T02:15:35.609Z,4.15
2023-05-08T02:16:35.743Z,4.11
2023-05-08T02:17:35.810Z,4.08
2023-05-08T02:18:35.846Z,4.06
2023-05-08T02:19:35.928Z,4.07
2023-05-08T02:20:36.006Z,4.09
2023-05-08T02:21:36.104Z,4.09
2023-05-08T02:22:36.214Z,4.09
2023-05-08T02:23:36.279Z,4.07
2023-05-08T02:24:57.351Z,4.05
2023-05-08T02:25:36.466Z,4.01
2023-05-08T02:26:36.510Z,3.99
2023-05-08T02:27:43.491Z,4.01
2023-05-08T02:28:36.687Z,4.02
2023-05-08T02:29:36.767Z,4.03
2023-05-08T02:30:36.868Z,4.04
2023-05-08T02:31:36.986Z,4.04
2023-05-08T02:32:37.086Z,4.04
2023-05-08T02:33:37.102Z,4.02
2023-05-08T02:34:38.128Z,4.00
2023-05-08T02:35:37.269Z,3.96
2023-05-08T02:36:37.350Z,3.94
2023-05-08T02:37:37.411Z,3.94
2023-05-08T02:38:37.508Z,3.94
2023-05-08T02:39:37.582Z,3.94
2023-05-08T02:40:37.677Z,3.94
2023-05-08T02:41:37.750Z,3.92
2023-05-08T02:42:37.849Z,3.89
2023-05-08T02:43:37.985Z,3.86
2023-05-08T02:44:38.027Z,3.83
2023-05-08T02:45:38.238Z,3.80
2023-05-08T02:46:38.449Z,3.77
2023-05-08T02:47:38.306Z,3.74
2023-05-08T02:48:38.368Z,3.73
2023-05-08T02:49:38.416Z,3.75
2023-05-08T02:50:38.508Z,3.78
2023-05-08T02:51:38.593Z,3.80
2023-05-08T02:52:38.682Z,3.79
2023-05-08T02:53:38.798Z,3.78
2023-05-08T02:54:38.851Z,3.75
2023-05-08T02:55:38.936Z,3.72
2023-05-08T02:56:39.046Z,3.69
2023-05-08T02:57:39.118Z,3.65
2023-05-08T02:58:46.073Z,3.61
2023-05-08T02:59:39.378Z,3.59
2023-05-08T03:00:39.369Z,3.59
2023-05-08T03:01:39.523Z,3.60
2023-05-08T03:02:39.594Z,3.61
2023-05-08T03:03:39.761Z,3.61
2023-05-08T03:04:39.690Z,3.60
2023-05-08T03:05:39.781Z,3.57
2023-05-08T03:06:39.867Z,3.51
2023-05-08T03:07:39.947Z,3.46
2023-05-08T03:08:40.023Z,3.42
2023-05-08T03:09:40.116Z,3.40
2023-05-08T03:10:40.214Z,3.41
2023-05-08T03:11:40.279Z,3.45
2023-05-08T03:12:42.576Z,3.49
2023-05-08T03:13:40.465Z,3.53
2023-05-08T03:14:40.577Z,3.55
2023-05-08T03:15:40.671Z,3.54
2023-05-08T03:16:40.688Z,3.51
2023-05-08T03:17:40.794Z,3.48
2023-05-08T03:18:40.863Z,3.44
2023-05-08T03:19:40.975Z,3.40
2023-05-08T03:20:41.021Z,3.37
2023-05-08T03:21:41.092Z,3.35
2023-05-08T03:22:41.170Z,3.33
2023-05-08T03:23:41.247Z,3.32
2023-05-08T03:24:41.332Z,3.34
2023-05-08T03:25:41.415Z,3.37
2023-05-08T03:26:41.509Z,3.38
2023-05-08T03:27:41.612Z,3.38
2023-05-08T03:28:41.694Z,3.37
2023-05-08T03:29:47.757Z,3.35
2023-05-08T03:30:41.873Z,3.34
2023-05-08T03:31:42.015Z,3.35
2023-05-08T03:32:42.038Z,3.40
2023-05-08T03:33:42.113Z,3.46
2023-05-08T03:34:42.166Z,3.51
2023-05-08T03:35:42.269Z,3.52
2023-05-08T03:36:42.363Z,3.53
2023-05-08T03:37:42.443Z,3.52
2023-05-08T03:38:42.554Z,3.49
2023-05-08T03:39:42.606Z,3.45
2023-05-08T03:40:42.834Z,3.43
2023-05-08T03:41:42.728Z,3.42
2023-05-08T03:42:42.821Z,3.42
2023-05-08T03:43:42.895Z,3.42
2023-05-08T03:44:42.976Z,3.43
2023-05-08T03:45:43.079Z,3.44
2023-05-08T03:46:43.142Z,3.46
2023-05-08T03:47:44.478Z,3.47
2023-05-08T03:48:43.297Z,3.46
2023-05-08T03:49:43.380Z,3.46
2023-05-08T03:50:43.464Z,3.45
2023-05-08T03:51:43.547Z,3.44
2023-05-08T03:52:43.648Z,3.44
2023-05-08T03:53:43.707Z,3.44
2023-05-08T03:54:43.798Z,3.46
2023-05-08T03:55:43.877Z,3.48
2023-05-08T03:56:43.972Z,3.53
2023-05-08T03:57:44.044Z,3.57
2023-05-08T03:58:44.126Z,3.61
2023-05-08T03:59:44.216Z,3.63
2023-05-08T04:00:50.333Z,3.64
2023-05-08T04:01:44.503Z,3.63
2023-05-08T04:02:44.556Z,3.63
2023-05-08T04:03:44.590Z,3.65
2023-05-08T04:04:44.620Z,3.67
2023-05-08T04:05:44.714Z,3.69
2023-05-08T04:06:49.988Z,3.73
2023-05-08T04:07:44.860Z,3.78
2023-05-08T04:08:44.941Z,3.83
2023-05-08T04:09:45.031Z,3.88
2023-05-08T04:10:45.114Z,3.91
2023-05-08T04:11:45.213Z,3.90
2023-05-08T04:12:45.362Z,3.90
2023-05-08T04:13:45.369Z,3.91
2023-05-08T04:14:45.469Z,3.92
2023-05-08T04:15:45.553Z,3.93
2023-05-08T04:16:45.677Z,3.94
2023-05-08T04:17:45.826Z,3.93
2023-05-08T04:18:45.819Z,3.93
2023-05-08T04:19:45.885Z,3.95
2023-05-08T04:20:46.310Z,3.97
2023-05-08T04:21:46.049Z,3.99
2023-05-08T04:22:46.134Z,4.02
2023-05-08T04:23:46.219Z,4.06
2023-05-08T04:24:46.301Z,4.10
2023-05-08T04:25:46.388Z,4.13
2023-05-08T04:26:46.472Z,4.17
2023-05-08T04:27:46.556Z,4.21
2023-05-08T04:28:46.649Z,4.25
2023-05-08T04:29:46.727Z,4.29
2023-05-08T04:30:46.820Z,4.33
2023-05-08T04:31:53.008Z,4.38
2023-05-08T04:32:47.214Z,4.42
2023-05-08T04:33:48.098Z,4.45
2023-05-08T04:34:47.195Z,4.49
2023-05-08T04:35:47.241Z,4.54
2023-05-08T04:36:47.327Z,4.59
2023-05-08T04:37:47.387Z,4.63
2023-05-08T04:38:47.495Z,4.66
2023-05-08T04:42:55.350Z,5.81
2023-05-08T04:43:56.503Z,5.38
2023-05-08T04:44:57.526Z,5.15
2023-05-08T04:45:56.652Z,5.07
2023-05-08T04:46:56.693Z,5.05
2023-05-08T04:47:56.771Z,5.07
2023-05-08T04:48:56.846Z,5.10
2023-05-08T04:49:56.934Z,5.13
2023-05-08T04:50:57.012Z,5.16
2023-05-08T04:51:57.072Z,5.19
2023-05-08T04:52:57.160Z,5.25
2023-05-08T04:53:57.268Z,5.30
2023-05-08T04:54:57.305Z,5.34
2023-05-08T04:55:57.432Z,5.39
2023-05-08T04:56:57.497Z,5.41
2023-05-08T04:57:57.578Z,5.45
2023-05-08T04:58:57.668Z,5.51
2023-05-08T04:59:57.729Z,5.57
2023-05-08T05:00:57.816Z,5.65
2023-05-08T05:01:57.949Z,5.76
2023-05-08T05:02:57.996Z,5.86
2023-05-08T05:03:58.126Z,5.92
2023-05-08T05:04:58.134Z,5.95
2023-05-08T05:05:58.221Z,5.96
2023-05-08T05:06:58.316Z,5.96
2023-05-08T05:07:58.404Z,5.96
2023-05-08T05:08:58.494Z,5.99
2023-05-08T05:09:58.581Z,6.07
2023-05-08T05:10:58.666Z,6.24
2023-05-08T05:11:58.747Z,6.49
2023-05-08T05:12:58.818Z,6.81
2023-05-08T05:13:58.898Z,7.14
2023-05-08T05:14:59.010Z,7.46
2023-05-08T05:15:59.188Z,7.72
2023-05-08T05:16:59.154Z,7.93
2023-05-08T05:17:59.303Z,8.14
2023-05-08T05:18:59.348Z,8.35
2023-05-08T05:19:59.410Z,8.47
2023-05-08T05:20:59.496Z,8.53
2023-05-08T05:21:59.568Z,8.66
2023-05-08T05:22:59.683Z,8.84
2023-05-08T05:23:59.748Z,8.99
2023-05-08T05:24:59.835Z,9.04
2023-05-08T05:25:59.906Z,9.09
2023-05-08T05:27:00.005Z,9.15
2023-05-08T05:28:00.134Z,9.21
2023-05-08T05:29:00.182Z,9.25
2023-05-08T05:30:00.268Z,9.29
2023-05-08T05:31:00.464Z,9.29
2023-05-08T05:32:00.429Z,9.25
2023-05-08T05:33:00.557Z,9.19
2023-05-08T05:34:00.602Z,9.11
2023-05-08T05:35:00.639Z,9.02
2023-05-08T05:36:00.729Z,8.95
2023-05-08T05:37:00.839Z,8.96
2023-05-08T05:38:00.882Z,9.02
2023-05-08T05:39:00.951Z,9.12
2023-05-08T05:40:01.045Z,9.22
2023-05-08T05:41:01.119Z,9.27
2023-05-08T05:42:01.221Z,9.32
2023-05-08T05:43:01.329Z,9.39
2023-05-08T05:44:01.398Z,9.47
2023-05-08T05:45:01.484Z,9.52
2023-05-08T05:46:01.613Z,9.55
2023-05-08T05:47:01.650Z,9.55
2023-05-08T05:48:01.772Z,9.56
2023-05-08T05:49:01.861Z,9.60
2023-05-08T05:50:01.908Z,9.63
2023-05-08T05:51:02.021Z,9.65
2023-05-08T05:52:02.117Z,9.65
2023-05-08T05:53:02.143Z,9.66
2023-05-08T05:54:02.204Z,9.69
2023-05-08T05:55:02.298Z,9.71
2023-05-08T05:56:02.378Z,9.69
2023-05-08T05:57:02.477Z,9.61
2023-05-08T05:58:02.563Z,9.54
2023-05-08T05:59:02.650Z,9.50
2023-05-08T06:00:02.740Z,9.50
2023-05-08T06:01:02.832Z,9.51
2023-05-08T06:02:02.947Z,9.50
2023-05-08T06:03:03.131Z,9.42
2023-05-08T06:04:03.171Z,9.31
2023-05-08T06:05:03.122Z,9.23
2023-05-08T06:06:03.181Z,9.17
2023-05-08T06:07:03.276Z,9.15
2023-05-08T06:08:03.325Z,9.15
2023-05-08T06:09:03.418Z,9.11
2023-05-08T06:10:03.517Z,9.04
2023-05-08T06:11:03.554Z,8.98
2023-05-08T06:12:03.659Z,8.96
2023-05-08T06:13:03.765Z,8.97
2023-05-08T06:14:03.831Z,9.00
2023-05-08T06:15:03.931Z,9.02
2023-05-08T06:16:04.016Z,9.02
2023-05-08T06:17:04.124Z,9.03
2023-05-08T06:18:04.297Z,9.03
2023-05-08T06:19:04.260Z,9.04
2023-05-08T06:20:04.347Z,9.10
2023-05-08T06:21:04.433Z,9.21
2023-05-08T06:22:04.498Z,9.38
2023-05-08T06:23:04.597Z,9.57
2023-05-08T06:24:04.704Z,9.76
2023-05-08T06:25:04.742Z,9.95
2023-05-08T06:26:04.849Z,10.13
2023-05-08T06:27:04.923Z,10.26
2023-05-08T06:28:05.000Z,10.36
2023-05-08T06:29:05.075Z,10.46
2023-05-08T06:30:05.174Z,10.58
2023-05-08T06:31:05.273Z,10.68
2023-05-08T06:32:05.331Z,10.78
2023-05-08T06:33:05.493Z,10.86
2023-05-08T06:34:05.511Z,10.94
2023-05-08T06:35:05.596Z,11.04
2023-05-08T06:36:05.685Z,11.16
2023-05-08T06:37:05.776Z,11.22
2023-05-08T06:38:05.867Z,11.23
2023-05-08T06:39:05.982Z,11.28
2023-05-08T06:40:12.110Z,11.36
2023-05-08T06:41:06.095Z,11.41
2023-05-08T06:42:06.183Z,11.47
2023-05-08T06:43:06.281Z,11.46
2023-05-08T06:44:06.362Z,11.39
2023-05-08T06:45:06.440Z,11.37
2023-05-08T06:46:06.582Z,11.38
2023-05-08T06:47:06.615Z,11.30
2023-05-08T06:48:06.775Z,11.17
2023-05-08T06:49:06.801Z,11.07
2023-05-08T06:50:06.866Z,11.02
2023-05-08T06:51:06.955Z,10.97
2023-05-08T06:52:07.028Z,10.93
2023-05-08T06:53:07.160Z,10.97
2023-05-08T06:54:07.202Z,11.13
2023-05-08T06:55:07.310Z,11.37
2023-05-08T06:56:07.383Z,11.62
2023-05-08T06:57:07.462Z,11.83
2023-05-08T06:58:07.555Z,12.09
2023-05-08T06:59:09.080Z,12.39
2023-05-08T07:00:07.710Z,12.68
2023-05-08T07:01:07.792Z,12.96
2023-05-08T07:02:07.856Z,13.18
2023-05-08T07:03:07.992Z,13.24
2023-05-08T07:04:08.045Z,13.23
2023-05-08T07:05:08.122Z,13.31
2023-05-08T07:06:08.184Z,13.44
2023-05-08T07:07:08.248Z,13.68
2023-05-08T07:08:08.342Z,13.87
2023-05-08T07:09:08.410Z,13.93
2023-05-08T07:10:08.452Z,13.89
2023-05-08T07:11:08.548Z,13.89
2023-05-08T07:12:08.630Z,13.96
2023-05-08T07:13:08.757Z,14.04
2023-05-08T07:14:08.790Z,14.17
2023-05-08T07:15:24.073Z,14.30
2023-05-08T07:16:09.002Z,14.34
2023-05-08T07:17:09.057Z,14.36
2023-05-08T07:18:09.286Z,14.36
2023-05-08T07:19:09.243Z,14.38
2023-05-08T07:20:09.325Z,14.42
2023-05-08T07:21:09.424Z,14.50
2023-05-08T07:22:09.566Z,14.64
2023-05-08T07:23:09.540Z,14.70
2023-05-08T07:24:09.624Z,14.63
2023-05-08T07:25:09.757Z,14.63
2023-05-08T07:26:09.816Z,14.71
2023-05-08T07:27:09.945Z,14.76
2023-05-08T07:28:10.007Z,14.85
2023-05-08T07:29:10.107Z,14.99
2023-05-08T07:30:10.187Z,15.13
2023-05-08T07:31:10.308Z,15.16
2023-05-08T07:32:10.338Z,15.00
2023-05-08T07:33:10.446Z,14.88
2023-05-08T07:34:10.502Z,14.84
2023-05-08T07:35:11.299Z,14.85
2023-05-08T07:36:10.652Z,14.94
2023-05-08T07:37:10.739Z,15.02
2023-05-08T07:38:11.420Z,15.05
2023-05-08T07:39:10.912Z,15.05
2023-05-08T07:40:11.009Z,15.05
2023-05-08T07:41:11.129Z,15.12
2023-05-08T07:42:11.186Z,15.31
2023-05-08T07:43:11.246Z,15.53
2023-05-08T07:44:11.333Z,15.77
2023-05-08T07:45:11.577Z,15.98
2023-05-08T07:46:11.512Z,16.13
2023-05-08T07:47:11.774Z,16.36
2023-05-08T07:48:11.749Z,16.66
2023-05-08T07:49:11.757Z,16.89
2023-05-08T07:50:11.853Z,17.08
2023-05-08T07:51:11.968Z,17.23
2023-05-08T07:52:12.041Z,17.30
2023-05-08T07:53:12.144Z,17.39
2023-05-08T07:54:12.213Z,17.47
2023-05-08T07:55:12.483Z,17.49
2023-05-08T07:56:12.401Z,17.49
2023-05-08T07:57:12.508Z,17.48
2023-05-08T07:58:12.578Z,17.46
2023-05-08T07:59:12.632Z,17.56
2023-05-08T08:00:12.716Z,17.84
2023-05-08T08:01:12.820Z,18.18
2023-05-08T08:02:12.918Z,18.42
2023-05-08T08:03:12.986Z,18.60
2023-05-08T08:04:15.319Z,18.70
2023-05-08T08:05:13.463Z,18.66
2023-05-08T08:06:13.145Z,18.61
2023-05-08T08:07:13.256Z,18.65
2023-05-08T08:08:13.325Z,18.71
2023-05-08T08:09:13.378Z,18.74
2023-05-08T08:10:13.469Z,18.71
2023-05-08T08:11:13.539Z,18.77
2023-05-08T08:12:13.597Z,18.86
2023-05-08T08:13:13.735Z,18.90
2023-05-08T08:14:13.790Z,18.91
2023-05-08T08:15:14.032Z,18.67
2023-05-08T08:16:13.954Z,18.28
2023-05-08T08:17:14.119Z,18.09
2023-05-08T08:18:14.153Z,18.06
2023-05-08T08:19:14.203Z,18.06
2023-05-08T08:20:14.285Z,18.12
2023-05-08T08:21:14.343Z,18.35
2023-05-08T08:22:14.443Z,18.55
2023-05-08T08:23:14.539Z,18.76
2023-05-08T08:24:14.640Z,19.12
2023-05-08T08:25:14.956Z,19.31
2023-05-08T08:26:14.786Z,19.33
2023-05-08T08:27:14.849Z,19.25
2023-05-08T08:28:14.952Z,19.13
2023-05-08T08:29:15.031Z,19.15
2023-05-08T08:30:18.207Z,19.25
2023-05-08T08:31:15.184Z,19.18
2023-05-08T08:32:15.834Z,19.01
2023-05-08T08:33:17.581Z,18.93
2023-05-08T08:34:15.396Z,18.91
2023-05-08T08:35:15.843Z,18.95
2023-05-08T08:36:15.519Z,19.00
2023-05-08T08:37:16.448Z,18.97
2023-05-08T08:38:15.692Z,18.97
2023-05-08T08:39:15.786Z,19.07
2023-05-08T08:40:15.872Z,19.29
2023-05-08T08:41:15.965Z,19.41
2023-05-08T08:42:16.079Z,19.33
2023-05-08T08:43:16.161Z,19.18
2023-05-08T08:44:16.291Z,19.06
2023-05-08T08:45:16.773Z,19.11
2023-05-08T08:46:16.442Z,19.30
2023-05-08T08:47:16.479Z,19.43
2023-05-08T08:48:16.560Z,19.48
2023-05-08T08:49:16.660Z,19.62
2023-05-08T08:50:16.773Z,19.62
2023-05-08T08:51:16.805Z,19.51
2023-05-08T08:52:16.914Z,19.45
2023-05-08T08:53:17.010Z,19.47
2023-05-08T08:54:17.066Z,19.54
2023-05-08T08:55:17.179Z,19.57
2023-05-08T08:56:17.225Z,19.49
2023-05-08T08:57:17.305Z,19.36
2023-05-08T08:58:17.395Z,19.35
2023-05-08T08:59:17.477Z,19.30
2023-05-08T09:00:17.579Z,19.09
2023-05-08T09:01:17.701Z,18.76
2023-05-08T09:02:18.203Z,18.32
2023-05-08T09:03:17.903Z,17.87
2023-05-08T09:04:17.918Z,17.51
2023-05-08T09:05:18.014Z,17.27
2023-05-08T09:06:18.089Z,17.19
2023-05-08T09:07:18.181Z,17.24
2023-05-08T09:08:18.277Z,17.41
2023-05-08T09:09:18.392Z,17.64
2023-05-08T09:10:18.451Z,17.80
2023-05-08T09:11:18.556Z,17.85
2023-05-08T09:12:18.619Z,17.85
2023-05-08T09:13:19.712Z,17.86
2023-05-08T09:14:18.764Z,17.95
2023-05-08T09:15:18.859Z,18.18
2023-05-08T09:16:18.957Z,18.53
2023-05-08T09:17:19.010Z,18.83
2023-05-08T09:18:19.090Z,19.01
2023-05-08T09:19:21.466Z,19.14
2023-05-08T09:20:19.236Z,19.23
2023-05-08T09:21:19.731Z,19.19
2023-05-08T09:22:19.437Z,19.05
2023-05-08T09:23:19.512Z,18.99
2023-05-08T09:24:19.612Z,19.01
2023-05-08T09:25:19.672Z,19.05
2023-05-08T09:26:19.796Z,19.11
2023-05-08T09:27:19.865Z,19.20
2023-05-08T09:28:19.919Z,19.26
2023-05-08T09:29:20.006Z,19.37
2023-05-08T09:30:20.172Z,19.59
2023-05-08T09:31:20.201Z,19.89
2023-05-08T09:32:20.287Z,20.07
2023-05-08T09:33:20.406Z,20.07
2023-05-08T09:34:20.438Z,19.95
2023-05-08T09:35:20.539Z,19.86
2023-05-08T09:36:20.625Z,19.78
2023-05-08T09:37:20.736Z,19.72
2023-05-08T09:38:20.802Z,19.71
2023-05-08T09:39:20.928Z,19.82
2023-05-08T09:40:21.115Z,20.11
2023-05-08T09:41:20.995Z,20.42
2023-05-08T09:42:21.207Z,20.68
2023-05-08T09:43:21.190Z,20.82
2023-05-08T09:44:21.283Z,20.78
2023-05-08T09:45:21.412Z,20.70
2023-05-08T09:46:21.464Z,20.63
2023-05-08T09:47:21.560Z,20.62
2023-05-08T09:48:21.642Z,20.62
2023-05-08T09:49:21.661Z,20.62
2023-05-08T09:50:21.761Z,20.58
2023-05-08T09:51:21.883Z,20.54
2023-05-08T09:52:21.905Z,20.58
2023-05-08T09:53:21.980Z,20.61
2023-05-08T09:54:22.037Z,20.68
2023-05-08T09:55:22.136Z,20.75
2023-05-08T09:56:22.249Z,20.73
2023-05-08T09:57:22.420Z,20.65
2023-05-08T09:58:22.412Z,20.54
2023-05-08T09:59:22.492Z,20.46
2023-05-08T10:00:23.388Z,20.45
2023-05-08T10:01:22.762Z,20.53
2023-05-08T10:02:22.796Z,20.80
2023-05-08T10:03:22.842Z,21.21
2023-05-08T10:04:22.938Z,21.42
2023-05-08T10:05:23.122Z,21.43
2023-05-08T10:06:23.022Z,21.30
2023-05-08T10:07:23.088Z,21.05
2023-05-08T10:08:23.188Z,20.78
2023-05-08T10:09:23.245Z,20.56
2023-05-08T10:10:23.357Z,20.44
2023-05-08T10:11:23.406Z,20.35
2023-05-08T10:12:23.503Z,20.36
2023-05-08T10:13:23.659Z,20.51
2023-05-08T10:14:23.719Z,20.75
2023-05-08T10:15:23.763Z,21.04
2023-05-08T10:16:23.839Z,21.22
2023-05-08T10:17:23.914Z,21.28
2023-05-08T10:18:24.030Z,21.33
2023-05-08T10:19:24.101Z,21.37
2023-05-08T10:20:24.154Z,21.42
2023-05-08T10:21:24.248Z,21.54
2023-05-08T10:22:24.347Z,21.69
2023-05-08T10:23:24.447Z,21.87
2023-05-08T10:24:24.546Z,21.97
2023-05-08T10:25:24.608Z,21.88
2023-05-08T10:26:24.663Z,21.71
2023-05-08T10:27:24.770Z,21.57
2023-05-08T10:28:24.835Z,21.59
2023-05-08T10:29:24.897Z,21.81
2023-05-08T10:30:25.011Z,22.02
2023-05-08T10:31:25.111Z,22.23
2023-05-08T10:32:25.283Z,22.39
2023-05-08T10:33:25.208Z,22.46
2023-05-08T10:34:25.270Z,22.57
2023-05-08T10:35:25.387Z,22.49
2023-05-08T10:36:25.453Z,22.41
2023-05-08T10:37:25.549Z,22.49
2023-05-08T10:38:25.642Z,22.57
2023-05-08T10:39:25.764Z,22.55
2023-05-08T10:40:25.816Z,22.39
2023-05-08T10:41:25.875Z,22.26
2023-05-08T10:42:25.936Z,22.17
2023-05-08T10:43:26.000Z,22.15
2023-05-08T10:44:26.082Z,22.14
2023-05-08T10:45:26.207Z,22.10
2023-05-08T10:46:26.315Z,22.15
2023-05-08T10:47:26.408Z,22.21
2023-05-08T10:48:26.415Z,22.21
2023-05-08T10:49:26.522Z,22.24
2023-05-08T10:50:26.596Z,22.30
2023-05-08T10:51:26.645Z,22.31
2023-05-08T10:52:26.698Z,22.25
2023-05-08T10:53:26.792Z,22.29
2023-05-08T10:54:28.064Z,22.41
2023-05-08T10:55:26.980Z,22.54
2023-05-08T10:56:27.127Z,22.66
2023-05-08T10:57:27.131Z,22.69
2023-05-08T10:58:27.199Z,22.65
2023-05-08T10:59:27.303Z,22.66
2023-05-08T11:00:27.389Z,22.75
2023-05-08T11:01:27.543Z,22.79
2023-05-08T11:02:27.664Z,22.69
2023-05-08T11:03:31.580Z,22.51
2023-05-08T11:04:27.792Z,22.34
2023-05-08T11:05:27.823Z,22.28
2023-05-08T11:06:27.924Z,22.30
2023-05-08T11:07:28.031Z,22.38
2023-05-08T11:08:28.101Z,22.43
2023-05-08T11:09:28.194Z,22.41
2023-05-08T11:10:28.251Z,22.42
2023-05-08T11:11:28.308Z,22.50
2023-05-08T11:12:28.389Z,22.55
2023-05-08T11:13:28.473Z,22.50
2023-05-08T11:14:28.540Z,22.49
2023-05-08T11:15:28.606Z,22.60
2023-05-08T11:16:28.725Z,22.60
2023-05-08T11:17:28.898Z,22.43
2023-05-08T11:18:41.930Z,22.34
2023-05-08T11:19:28.949Z,22.41
2023-05-08T11:20:30.218Z,22.55
2023-05-08T11:21:29.140Z,22.74
2023-05-08T11:22:29.326Z,22.97
2023-05-08T11:23:29.330Z,23.19
2023-05-08T11:24:29.384Z,23.34
2023-05-08T11:25:29.458Z,23.48
2023-05-08T11:26:29.508Z,23.71
2023-05-08T11:27:29.612Z,24.05
2023-05-08T11:28:30.636Z,24.30
2023-05-08T11:29:29.755Z,24.32
2023-05-08T11:30:29.847Z,24.21
2023-05-08T11:31:29.985Z,24.08
2023-05-08T11:32:30.066Z,24.02
2023-05-08T11:33:30.102Z,23.96
2023-05-08T11:34:30.160Z,23.94
2023-05-08T11:35:30.236Z,24.02
2023-05-08T11:36:30.326Z,24.02
2023-05-08T11:37:30.400Z,23.97
2023-05-08T11:38:30.521Z,23.96
2023-05-08T11:39:30.559Z,23.95
2023-05-08T11:40:30.656Z,23.90
2023-05-08T11:41:30.753Z,23.91
2023-05-08T11:42:30.880Z,23.93
2023-05-08T11:43:30.945Z,23.83
2023-05-08T11:44:30.977Z,23.67
2023-05-08T11:45:31.076Z,23.65
2023-05-08T11:46:31.200Z,23.82
2023-05-08T11:47:31.230Z,24.05
2023-05-08T11:48:31.352Z,24.17
2023-05-08T11:49:31.421Z,24.20
2023-05-08T11:50:31.488Z,24.29
2023-05-08T11:51:31.563Z,24.46
2023-05-08T11:52:31.668Z,24.74
2023-05-08T11:53:31.779Z,24.95
2023-05-08T11:54:32.032Z,25.07
2023-05-08T11:55:31.910Z,25.12
2023-05-08T11:56:32.015Z,25.09
2023-05-08T11:57:32.100Z,24.82
2023-05-08T11:58:32.188Z,24.51
2023-05-08T11:59:32.263Z,24.38
2023-05-08T12:00:32.374Z,24.43
2023-05-08T12:01:32.430Z,24.58
2023-05-08T12:02:33.930Z,24.69
2023-05-08T12:03:32.750Z,24.80
2023-05-08T12:04:32.798Z,24.95
2023-05-08T12:05:33.526Z,25.00
2023-05-08T12:06:32.780Z,24.83
2023-05-08T12:07:32.876Z,24.75
2023-05-08T12:08:32.978Z,24.85
2023-05-08T12:09:33.089Z,25.01
2023-05-08T12:10:33.141Z,25.27
2023-05-08T12:11:33.255Z,25.47
2023-05-08T12:12:33.311Z,25.54
2023-05-08T12:13:33.513Z,25.59
2023-05-08T12:14:33.492Z,25.66
2023-05-08T12:15:33.565Z,25.67
2023-05-08T12:16:33.722Z,25.48
2023-05-08T12:17:33.813Z,25.14
2023-05-08T12:18:33.777Z,24.90
2023-05-08T12:19:33.875Z,24.71
2023-05-08T12:20:34.047Z,24.52
2023-05-08T12:21:34.069Z,24.34
2023-05-08T12:22:34.159Z,24.15
2023-05-08T12:23:34.249Z,23.97
2023-05-08T12:24:34.310Z,23.77
2023-05-08T12:25:34.431Z,23.61
2023-05-08T12:26:34.490Z,23.55
2023-05-08T12:27:34.584Z,23.39
2023-05-08T12:28:34.682Z,23.18
2023-05-08T12:29:34.771Z,23.11
2023-05-08T12:30:34.877Z,23.16
2023-05-08T12:31:35.037Z,23.22
2023-05-08T12:32:35.090Z,23.18
2023-05-08T12:33:35.137Z,23.10
2023-05-08T12:34:35.201Z,23.08
2023-05-08T12:35:35.293Z,23.10
2023-05-08T12:36:35.399Z,23.12
2023-05-08T12:37:35.517Z,23.07
2023-05-08T12:38:35.556Z,23.04
2023-05-08T12:39:35.653Z,23.19
2023-05-08T12:40:35.751Z,23.48
2023-05-08T12:41:35.870Z,23.77
2023-05-08T12:42:35.894Z,24.01
2023-05-08T12:43:36.001Z,24.24
2023-05-08T12:44:36.086Z,24.48
2023-05-08T12:45:36.211Z,24.77
2023-05-08T12:46:36.307Z,25.00
2023-05-08T12:47:36.352Z,25.10
2023-05-08T12:48:36.420Z,25.12
2023-05-08T12:49:36.499Z,25.11
2023-05-08T12:50:43.337Z,25.11
2023-05-08T12:51:36.749Z,25.04
2023-05-08T12:52:36.741Z,24.92
2023-05-08T12:53:36.838Z,24.87
2023-05-08T12:54:36.932Z,24.83
2023-05-08T12:55:37.023Z,24.69
2023-05-08T12:56:37.155Z,24.59
2023-05-08T12:57:37.204Z,24.61
2023-05-08T12:58:37.301Z,24.66
2023-05-08T12:59:37.401Z,24.87
2023-05-08T13:00:37.454Z,25.18
2023-05-08T13:01:37.589Z,25.30
2023-05-08T13:02:44.474Z,25.24
2023-05-08T13:03:37.792Z,25.03
2023-05-08T13:04:37.903Z,24.81
2023-05-08T13:05:37.929Z,24.78
2023-05-08T13:06:37.934Z,24.94
2023-05-08T13:07:38.028Z,25.02
2023-05-08T13:08:38.143Z,24.98
2023-05-08T13:09:38.156Z,24.86